LIVE Streaming HD
Get Adobe Flash player
Annunci di Google
Satellite
Annunci di Google
Fasi Lunari
Satellite 2
satellite e T nubi
Previsione
Dati meteo stazione (refresh automatico ogni minuto)
Senigallia(AN) VENTO: VELOCITÀ   PIOGGIA: QTA GIORNO TEMPERATURA: ATTUALE
SPOT: Darsena Di Senigallia RAFFICA MASSIMA: QTA MENSILE: MASSIMA:
VELOCITÀ MEDIA: QTA ANNUALE: MINIMA:
DIREZIONE: UMIDITÀ: WIND CHILL:
TIPO: DEW POINT:
BEAUFORT: PRESSIONE:
I nostri partner
Senigallia(AN) nelle ultime ore
Applica filtri in visualizzazione Intervallo delle letture nelle ultime

Ora Direzione Vento Velocita' Vento Media Vento Raffica Max. Temperatura Wind Chill Pioggia Pressione
16:01:5699 °(E)9.6 Kts10.4 Kts13.9 Kts20.7 °C17.2 °C0 mm1015 Hpa
15:56:41119 °(ESE)12.2 Kts11.3 Kts13.9 Kts20.6 °C16.9 °C0 mm1014.9 Hpa
15:52:30111 °(ESE)10.4 Kts10.4 Kts13.9 Kts20.6 °C17.2 °C0 mm1015 Hpa
15:47:17113 °(ESE)10.4 Kts9.6 Kts13.9 Kts20.6 °C17.2 °C0 mm1015 Hpa
15:42:03124 °(SE)9.6 Kts8.7 Kts13.9 Kts20.7 °C17.9 °C0 mm1015 Hpa
15:37:03110 °(ESE)9.6 Kts8.7 Kts13.9 Kts20.9 °C18 °C0 mm1015.2 Hpa
15:32:16107 °(ESE)8.7 Kts9.6 Kts13.9 Kts20.8 °C17.6 °C0 mm1015.2 Hpa
15:27:00107 °(ESE)11.3 Kts9.6 Kts13.9 Kts20.8 °C17.6 °C0 mm1015.2 Hpa
15:22:0291 °(E)8.7 Kts9.6 Kts13.9 Kts20.7 °C17.6 °C0 mm1015.2 Hpa
15:16:48107 °(ESE)8.7 Kts10.4 Kts13.9 Kts20.5 °C17 °C0 mm1015.2 Hpa
15:11:54128 °(SE)8.7 Kts10.4 Kts13.9 Kts20.4 °C16.9 °C0 mm1015.2 Hpa
15:07:00115 °(ESE)11.3 Kts10.4 Kts13.9 Kts20.6 °C17.1 °C0 mm1015.4 Hpa
15:02:05112 °(ESE)12.2 Kts10.4 Kts13.9 Kts20.6 °C17.1 °C0 mm1015.4 Hpa
14:56:50110 °(ESE)12.2 Kts10.4 Kts13.9 Kts20.6 °C17.1 °C0 mm1015.4 Hpa
14:51:54114 °(ESE)12.2 Kts10.4 Kts13.9 Kts20.6 °C17.1 °C0 mm1015.5 Hpa
14:46:16112 °(ESE)10.4 Kts10.4 Kts13.9 Kts20.7 °C17.2 °C0 mm1015.5 Hpa
14:41:59113 °(ESE)7.8 Kts10.4 Kts13.9 Kts20.6 °C17.2 °C0 mm1015.5 Hpa
14:36:55104 °(ESE)12.2 Kts10.4 Kts13.9 Kts20.6 °C17.2 °C0 mm1015.7 Hpa
14:31:43119 °(ESE)8.7 Kts9.6 Kts13 Kts20.6 °C17.2 °C0 mm1015.8 Hpa
14:26:38111 °(ESE)9.6 Kts9.6 Kts13 Kts20.7 °C17.6 °C0 mm1015.7 Hpa
14:22:26126 °(SE)10.4 Kts9.6 Kts13 Kts20.8 °C17.6 °C0 mm1015.9 Hpa
14:17:11111 °(ESE)7.8 Kts8.7 Kts13 Kts20.7 °C17.9 °C0 mm1016 Hpa
14:12:1390 °(E)7.8 Kts8.7 Kts13 Kts20.9 °C18.1 °C0 mm1016 Hpa
14:07:11105 °(ESE)8.7 Kts9.6 Kts13 Kts20.8 °C17.6 °C0 mm1016 Hpa